Time;durP1;ratioP1;P1;durP2;ratioP2;P2;SDS_P1;SDS_P2;PMS_P1;PMS_P2;Temp;Humidity;BMP_temperature;BMP_pressure;BME280_temperature;BME280_humidity;BME280_pressure;Samples;Min_cycle;Max_cycle;Signal;HPM_P1;HPM_P2
2022/05/11 00:01:32;;;;;;;17.25;10.23;;;;;;;7.45;80.70;94854.80;1685123;85;21122;-52
2022/05/11 00:04:00;;;;;;;14.23;9.13;;;;;;;7.43;80.82;94850.94;1685222;84;21038;-51
2022/05/11 00:06:27;;;;;;;14.98;10.65;;;;;;;7.40;80.91;94858.05;1684893;85;21517;-50
2022/05/11 00:08:56;;;;;;;14.70;9.85;;;;;;;7.40;81.14;94862.73;1663643;85;21034;-51
2022/05/11 00:11:26;;;;;;;20.68;9.90;;;;;;;7.38;80.91;94852.81;1685121;85;21164;-52
2022/05/11 00:13:52;;;;;;;14.00;8.45;;;;;;;7.37;81.03;94858.88;1685172;85;20987;-51
2022/05/11 00:16:19;;;;;;;14.00;8.48;;;;;;;7.36;81.12;94855.96;1684860;85;21068;-49
2022/05/11 00:18:47;;;;;;;16.20;9.85;;;;;;;7.33;81.31;94849.97;1662272;85;21066;-50
2022/05/11 00:21:14;;;;;;;17.05;9.45;;;;;;;7.30;81.47;94846.72;1685235;85;21089;-51
2022/05/11 00:23:41;;;;;;;10.68;7.80;;;;;;;7.26;81.56;94846.03;1656859;85;21220;-51
2022/05/11 00:26:08;;;;;;;16.15;8.08;;;;;;;7.22;81.69;94845.34;1652365;86;21045;-53
2022/05/11 00:28:36;;;;;;;16.40;8.48;;;;;;;7.11;81.79;94847.52;1651347;86;21052;-51
2022/05/11 00:31:03;;;;;;;10.63;7.83;;;;;;;7.04;82.13;94843.39;1684353;83;21064;-52
2022/05/11 00:33:30;;;;;;;11.97;7.58;;;;;;;7.02;82.38;94851.22;1686763;85;21088;-51
2022/05/11 00:35:57;;;;;;;11.75;7.15;;;;;;;6.98;82.24;94846.42;1663975;85;21228;-52
2022/05/11 00:38:26;;;;;;;9.50;7.15;;;;;;;6.95;82.53;94843.95;1686488;85;21025;-52
2022/05/11 00:40:56;;;;;;;14.63;7.35;;;;;;;6.96;82.79;94842.77;1686695;83;21069;-52
2022/05/11 00:43:36;;;;;;;10.45;7.03;;;;;;;6.95;82.86;94843.17;1686369;85;21100;-51
2022/05/11 00:46:17;;;;;;;10.13;7.72;;;;;;;6.87;82.82;94841.17;1685931;85;21076;-51
2022/05/11 00:51:34;;;;;;;12.75;8.60;;;;;;;6.81;83.08;94847.55;1686629;85;21148;-51
2022/05/11 00:54:00;;;;;;;13.08;8.73;;;;;;;6.79;83.14;94840.36;1686969;85;21554;-50
2022/05/11 00:56:27;;;;;;;16.23;8.73;;;;;;;6.75;83.33;94838.30;1686396;85;20990;-51
2022/05/11 00:59:05;;;;;;;13.58;8.50;;;;;;;6.72;83.38;94834.43;1686584;85;21057;-51
2022/05/11 01:01:32;;;;;;;12.05;9.18;;;;;;;6.69;83.38;94840.75;1686505;85;21302;-50
2022/05/11 01:04:12;;;;;;;13.30;8.55;;;;;;;6.65;83.34;94833.22;1682273;84;20986;-51
2022/05/11 01:06:40;;;;;;;13.75;8.18;;;;;;;6.64;83.55;94837.72;1680874;84;21068;-52
2022/05/11 01:09:07;;;;;;;16.07;9.83;;;;;;;6.62;83.65;94837.38;1681299;85;20982;-51
2022/05/11 01:11:47;;;;;;;15.72;8.48;;;;;;;6.56;83.58;94837.69;1681555;85;21067;-51
2022/05/11 01:14:15;;;;;;;10.48;8.58;;;;;;;6.48;83.67;94838.41;1680853;85;21125;-51
2022/05/11 01:16:43;;;;;;;18.20;9.33;;;;;;;6.38;83.66;94839.97;1681188;85;21105;-51
2022/05/11 01:19:15;;;;;;;15.30;9.65;;;;;;;6.30;83.81;94834.47;1705696;84;21445;-51
2022/05/11 01:21:54;;;;;;;16.55;9.95;;;;;;;6.26;83.96;94832.38;1707404;84;20968;-51
2022/05/11 01:24:40;;;;;;;16.15;8.65;;;;;;;6.24;84.18;94832.02;1681260;85;21045;-50
2022/05/11 01:27:39;;;;;;;17.87;9.60;;;;;;;6.24;84.40;94829.29;1681282;85;21245;-51
2022/05/11 01:30:20;;;;;;;12.10;8.73;;;;;;;6.27;84.60;94831.19;1680692;84;21031;-51
2022/05/11 01:32:50;;;;;;;14.28;9.65;;;;;;;6.29;84.70;94829.59;1679853;85;21491;-50
2022/05/11 01:35:57;;;;;;;13.60;8.33;;;;;;;6.31;84.69;94831.91;1680026;85;21051;-50
2022/05/11 01:38:41;;;;;;;10.30;7.67;;;;;;;6.34;84.62;94833.81;1679762;85;21046;-50
2022/05/11 01:41:31;;;;;;;18.75;10.63;;;;;;;6.36;84.16;94832.19;1679003;85;21176;-51
2022/05/11 01:44:01;;;;;;;16.42;9.13;;;;;;;6.32;84.18;94833.46;1654539;85;21014;-50
2022/05/11 01:46:28;;;;;;;14.03;8.88;;;;;;;6.24;84.25;94831.44;1679964;85;21054;-50
2022/05/11 01:48:56;;;;;;;17.15;9.65;;;;;;;6.16;84.19;94825.91;1677325;85;21049;-50
2022/05/11 01:51:22;;;;;;;15.93;8.80;;;;;;;6.08;84.34;94827.23;1652986;85;21077;-51
2022/05/11 01:53:51;;;;;;;23.12;8.70;;;;;;;6.01;84.45;94825.22;1679598;84;21521;-51
2022/05/11 01:56:20;;;;;;;15.30;8.33;;;;;;;6.00;84.98;94827.77;1679730;85;21061;-51
2022/05/11 01:58:49;;;;;;;21.05;8.10;;;;;;;6.03;85.28;94828.30;1677632;85;20994;-50
2022/05/11 02:01:19;;;;;;;11.35;7.15;;;;;;;6.06;85.08;94826.09;1679709;85;21121;-51
2022/05/11 02:03:47;;;;;;;10.60;7.55;;;;;;;5.99;84.88;94827.59;1682766;84;21045;-51
2022/05/11 02:08:58;;;;;;;9.00;6.62;;;;;;;5.88;84.94;94833.23;1685215;85;21136;-51
2022/05/11 02:11:26;;;;;;;11.40;7.75;;;;;;;5.88;84.87;94825.62;1685095;85;21042;-52
2022/05/11 02:13:53;;;;;;;10.68;7.37;;;;;;;5.87;84.93;94818.61;1685245;85;21193;-51
2022/05/11 02:16:20;;;;;;;9.88;7.47;;;;;;;5.81;85.03;94815.58;1685072;85;21097;-51
2022/05/11 02:18:48;;;;;;;11.60;7.08;;;;;;;5.75;85.22;94813.73;1662445;85;21169;-53
2022/05/11 02:21:15;;;;;;;8.95;6.65;;;;;;;5.68;85.43;94826.89;1684866;85;21030;-54
2022/05/11 02:23:43;;;;;;;14.93;7.70;;;;;;;5.62;85.49;94823.07;1655463;85;21093;-50
2022/05/11 02:26:11;;;;;;;12.13;7.53;;;;;;;5.58;85.56;94821.60;1650992;87;21022;-51
2022/05/11 02:28:39;;;;;;;11.97;7.05;;;;;;;5.55;85.86;94831.95;1650630;87;20983;-54
2022/05/11 02:31:06;;;;;;;12.98;7.10;;;;;;;5.59;86.21;94828.60;1672687;83;21257;-50
2022/05/11 02:33:32;;;;;;;15.60;8.00;;;;;;;5.62;86.16;94825.80;1684806;85;21124;-51
2022/05/11 02:35:59;;;;;;;10.45;7.83;;;;;;;5.66;86.12;94824.39;1684957;85;21050;-51
2022/05/11 02:38:33;;;;;;;12.70;7.17;;;;;;;5.64;86.03;94828.13;1684593;85;21073;-51
2022/05/11 02:40:59;;;;;;;11.93;6.75;;;;;;;5.65;86.04;94820.91;1684621;85;21053;-51
2022/05/11 02:43:26;;;;;;;10.58;6.75;;;;;;;5.72;86.21;94822.72;1707036;83;21523;-52
2022/05/11 02:45:53;;;;;;;10.10;6.85;;;;;;;5.79;86.01;94821.30;1715146;83;21004;-51
2022/05/11 02:48:23;;;;;;;20.27;8.58;;;;;;;5.78;85.76;94814.27;1691244;83;21000;-50
2022/05/11 02:50:53;;;;;;;15.40;8.00;;;;;;;5.75;85.71;94817.83;1715419;83;20957;-51
2022/05/11 02:53:20;;;;;;;9.70;6.92;;;;;;;5.74;85.80;94814.31;1715288;83;20961;-50
2022/05/11 02:55:50;;;;;;;9.20;6.92;;;;;;;5.73;85.70;94805.16;1690452;83;21161;-52
2022/05/11 02:58:20;;;;;;;22.00;7.80;;;;;;;5.73;85.66;94810.04;1686557;85;21081;-51
2022/05/11 03:00:49;;;;;;;8.85;7.35;;;;;;;5.73;85.63;94810.63;1686794;85;21037;-52
2022/05/11 03:03:17;;;;;;;13.50;7.08;;;;;;;5.70;85.75;94818.27;1686281;84;21113;-53
2022/05/11 03:05:44;;;;;;;36.77;9.85;;;;;;;5.68;85.91;94809.73;1686101;85;21072;-51
2022/05/11 03:08:12;;;;;;;13.08;7.87;;;;;;;5.71;86.13;94808.90;1686398;83;21720;-51
2022/05/11 03:10:39;;;;;;;14.25;7.60;;;;;;;5.73;86.30;94811.98;1686201;85;21068;-51
2022/05/11 03:13:07;;;;;;;18.07;7.00;;;;;;;5.78;86.33;94812.32;1686409;84;21586;-51
2022/05/11 03:15:34;;;;;;;14.90;7.78;;;;;;;5.83;86.06;94811.84;1686480;85;21130;-52
2022/05/11 03:18:01;;;;;;;12.65;7.50;;;;;;;5.86;85.96;94808.88;1686160;83;20985;-52
2022/05/11 03:20:28;;;;;;;16.82;8.18;;;;;;;5.93;86.21;94810.91;1685162;85;21411;-51
2022/05/11 03:22:55;;;;;;;11.53;7.95;;;;;;;6.03;86.15;94812.70;1685443;83;21080;-53
2022/05/11 03:25:23;;;;;;;14.45;8.30;;;;;;;6.14;85.94;94821.46;1650734;86;21038;-52
2022/05/11 03:27:50;;;;;;;12.65;7.05;;;;;;;6.22;85.60;94818.02;1651063;86;21072;-50
2022/05/11 03:30:17;;;;;;;13.38;7.37;;;;;;;6.31;85.05;94815.53;1650651;85;21088;-51
2022/05/11 03:35:29;;;;;;;14.18;7.40;;;;;;;6.25;84.48;94818.55;1650918;86;21801;-51
2022/05/11 03:37:56;;;;;;;9.75;6.75;;;;;;;6.22;84.50;94808.45;1650852;87;21171;-51
2022/05/11 03:40:23;;;;;;;13.28;6.58;;;;;;;6.20;84.31;94813.56;1650769;87;21084;-52
2022/05/11 03:42:50;;;;;;;11.35;6.30;;;;;;;6.18;84.24;94814.58;1649829;85;21029;-52
2022/05/11 03:45:21;;;;;;;13.83;7.37;;;;;;;6.19;84.36;94816.13;1649265;86;21239;-51
2022/05/11 03:47:47;;;;;;;11.75;8.18;;;;;;;6.20;84.28;94816.30;1649243;87;21035;-52
2022/05/11 03:50:20;;;;;;;17.67;9.25;;;;;;;6.27;84.45;94814.80;1628337;87;21063;-51
2022/05/11 03:52:47;;;;;;;12.13;8.48;;;;;;;6.37;84.61;94807.77;1649856;86;21534;-51
2022/05/11 03:55:14;;;;;;;10.93;7.37;;;;;;;6.67;84.83;94804.86;1628502;86;21071;-51
2022/05/11 03:57:41;;;;;;;23.25;8.18;;;;;;;7.13;84.41;94808.80;1649926;87;21256;-51
2022/05/11 04:00:12;;;;;;;43.10;10.80;;;;;;;7.46;82.81;94808.45;1649764;86;21065;-53
2022/05/11 04:02:40;;;;;;;14.70;9.57;;;;;;;7.55;81.82;94800.41;1649819;86;21066;-51
2022/05/11 04:05:09;;;;;;;15.83;9.28;;;;;;;7.57;81.27;94807.62;1636356;86;20997;-53
2022/05/11 04:07:36;;;;;;;13.38;8.95;;;;;;;7.55;80.75;94801.77;1647015;87;21119;-51
2022/05/11 04:10:05;;;;;;;13.00;9.18;;;;;;;7.55;80.57;94803.14;1635030;87;21173;-51
2022/05/11 04:12:34;;;;;;;15.35;9.68;;;;;;;7.49;80.46;94800.75;1635677;87;21077;-51
2022/05/11 04:15:01;;;;;;;16.20;8.23;;;;;;;7.51;80.57;94798.35;1636454;87;21029;-52
2022/05/11 04:17:28;;;;;;;13.53;8.30;;;;;;;7.59;80.38;94796.22;1634957;87;21045;-50
2022/05/11 04:19:55;;;;;;;11.28;8.13;;;;;;;7.68;80.59;94796.42;1636138;86;21061;-49
2022/05/11 04:22:22;;;;;;;13.43;7.72;;;;;;;7.79;80.43;94799.66;1636151;86;21438;-50
2022/05/11 04:24:49;;;;;;;12.50;8.05;;;;;;;7.90;80.09;94803.67;1636059;86;21575;-51
2022/05/11 04:27:16;;;;;;;11.88;8.10;;;;;;;7.97;79.76;94803.52;1615846;87;21009;-53
2022/05/11 04:29:42;;;;;;;22.17;7.55;;;;;;;8.05;79.74;94794.53;1636423;87;21133;-51
2022/05/11 04:32:10;;;;;;;8.48;6.92;;;;;;;8.22;79.68;94794.72;1656660;86;21077;-51
2022/05/11 04:34:43;;;;;;;18.30;7.67;;;;;;;8.36;78.66;94792.37;1688131;85;21292;-51
2022/05/11 04:37:08;;;;;;;15.13;7.33;;;;;;;8.42;77.81;94801.59;1674848;85;21434;-52
2022/05/11 04:39:36;;;;;;;10.88;6.30;;;;;;;8.44;77.36;94797.82;1688201;85;21034;-52
2022/05/11 04:42:04;;;;;;;9.55;6.33;;;;;;;8.45;76.98;94801.34;1676050;85;21371;-57
2022/05/11 04:44:31;;;;;;;11.15;6.37;;;;;;;8.53;77.03;94798.58;1664053;85;21545;-58
2022/05/11 04:46:58;;;;;;;12.60;6.60;;;;;;;8.64;76.85;94803.94;1619707;88;21232;-53
2022/05/11 04:49:24;;;;;;;13.50;6.72;;;;;;;8.79;76.35;94801.59;1602850;89;21034;-51
2022/05/11 04:52:08;;;;;;;16.50;6.47;;;;;;;8.91;76.12;94803.00;1603627;89;21030;-51
2022/05/11 04:54:43;;;;;;;16.05;6.17;;;;;;;9.01;75.80;94801.33;1606286;86;21090;-52
2022/05/11 04:57:10;;;;;;;17.35;6.80;;;;;;;9.15;75.65;94797.40;1676590;85;21025;-50
2022/05/11 04:59:40;;;;;;;9.45;5.45;;;;;;;9.38;75.54;94799.84;1688300;85;21885;-50
2022/05/11 05:02:06;;;;;;;16.35;7.03;;;;;;;9.57;74.50;94795.53;1651598;85;21462;-51
2022/05/11 05:04:34;;;;;;;7.03;5.72;;;;;;;9.68;73.83;94791.08;1683271;85;21034;-56
2022/05/11 05:07:00;;;;;;;9.08;5.78;;;;;;;9.75;73.94;94790.26;1653244;86;21026;-53
2022/05/11 05:09:27;;;;;;;14.45;6.15;;;;;;;9.87;73.54;94787.33;1663222;86;21104;-52
2022/05/11 05:11:55;;;;;;;10.32;6.85;;;;;;;10.00;73.49;94792.22;1679617;85;21876;-53
2022/05/11 05:14:22;;;;;;;40.28;7.33;;;;;;;10.18;73.21;94789.69;1670450;85;21048;-54
2022/05/11 05:16:49;;;;;;;14.55;8.80;;;;;;;10.34;72.77;94788.92;1649401;87;20979;-52
2022/05/11 05:19:16;;;;;;;13.95;8.05;;;;;;;10.52;72.35;94786.95;1651023;85;21033;-52
2022/05/11 05:21:42;;;;;;;13.20;7.17;;;;;;;10.65;71.76;94791.79;1650691;85;21107;-54
2022/05/11 05:24:09;;;;;;;9.13;6.17;;;;;;;10.71;71.46;94785.89;1650772;87;22644;-53
2022/05/11 05:26:35;;;;;;;9.53;6.30;;;;;;;10.78;71.24;94787.80;1650737;85;21078;-53
2022/05/11 05:31:48;;;;;;;9.28;5.58;;;;;;;10.98;70.01;94786.88;1649935;85;21065;-56
2022/05/11 05:34:16;;;;;;;11.03;6.03;;;;;;;11.10;69.26;94778.53;1652842;85;21102;-54
2022/05/11 05:36:43;;;;;;;13.60;6.75;;;;;;;11.17;69.09;94776.13;1650693;86;21105;-53
2022/05/11 05:39:10;;;;;;;13.13;8.70;;;;;;;11.26;68.72;94785.22;1643290;85;22163;-53
2022/05/11 05:41:37;;;;;;;10.78;6.58;;;;;;;11.40;68.58;94781.16;1638530;85;21069;-54
2022/05/11 05:44:06;;;;;;;14.65;6.00;;;;;;;11.58;68.30;94784.81;1650055;85;21077;-53
2022/05/11 05:46:35;;;;;;;8.85;6.15;;;;;;;11.76;67.42;94786.27;1643773;85;22282;-53
2022/05/11 05:49:01;;;;;;;9.65;6.05;;;;;;;11.92;67.11;94783.88;1650416;86;21174;-51
2022/05/11 05:51:28;;;;;;;10.93;6.80;;;;;;;12.04;66.25;94793.41;1644281;86;21114;-53
2022/05/11 05:53:55;;;;;;;10.20;6.03;;;;;;;12.13;65.71;94788.53;1636378;87;21088;-53
2022/05/11 05:56:22;;;;;;;8.70;6.10;;;;;;;12.20;65.47;94791.77;1632489;86;21073;-55
2022/05/11 05:58:49;;;;;;;11.93;7.28;;;;;;;12.30;65.28;94796.06;1632438;86;21064;-55
2022/05/11 06:01:16;;;;;;;9.48;7.40;;;;;;;12.40;64.99;94790.73;1631953;86;21183;-55
2022/05/11 06:03:48;;;;;;;12.80;7.35;;;;;;;12.57;64.75;94789.22;1621055;87;21069;-55
2022/05/11 06:06:16;;;;;;;13.43;5.85;;;;;;;12.72;64.42;94789.53;1631635;86;21017;-52
2022/05/11 06:08:43;;;;;;;11.10;5.97;;;;;;;12.88;63.54;94785.72;1634417;86;21001;-52
2022/05/11 06:11:09;;;;;;;13.22;8.33;;;;;;;12.96;62.79;94793.86;1631812;86;21075;-55
2022/05/11 06:13:38;;;;;;;15.53;5.35;;;;;;;12.97;62.61;94787.89;1633780;86;21101;-53
2022/05/11 06:16:12;;;;;;;16.73;5.30;;;;;;;13.02;62.71;94789.25;1635500;86;21057;-54
2022/05/11 06:18:41;;;;;;;9.15;4.78;;;;;;;13.09;62.28;94790.34;1634825;86;21022;-53
2022/05/11 06:21:10;;;;;;;12.15;5.95;;;;;;;13.13;61.88;94793.70;1612026;86;21543;-57
2022/05/11 06:23:38;;;;;;;6.00;4.70;;;;;;;13.14;61.99;94787.73;1632191;86;21157;-57
2022/05/11 06:26:05;;;;;;;9.75;4.80;;;;;;;13.24;61.81;94787.85;1632053;86;21143;-56
2022/05/11 06:28:39;;;;;;;10.45;5.60;;;;;;;13.37;61.60;94786.29;1632360;86;20994;-56
2022/05/11 06:31:07;;;;;;;7.78;4.60;;;;;;;13.49;61.49;94783.97;1642799;86;21364;-59
2022/05/11 06:33:37;;;;;;;11.55;5.20;;;;;;;13.60;60.92;94778.73;1631522;86;21029;-57
2022/05/11 06:36:08;;;;;;;9.20;4.67;;;;;;;13.71;60.34;94779.77;1612349;86;21008;-56
2022/05/11 06:38:36;;;;;;;9.50;5.12;;;;;;;13.87;60.34;94778.63;1648140;85;21217;-56
2022/05/11 06:41:18;;;;;;;16.32;5.10;;;;;;;14.03;59.96;94776.86;1647366;85;21546;-55
2022/05/11 06:43:44;;;;;;;13.70;5.37;;;;;;;14.21;59.64;94774.03;1647619;85;21003;-56
2022/05/11 06:46:11;;;;;;;8.58;4.83;;;;;;;14.36;59.10;94776.27;1628062;86;21007;-56
2022/05/11 06:48:38;;;;;;;11.88;6.25;;;;;;;14.43;59.05;94771.14;1648169;85;21131;-55
2022/05/11 06:51:04;;;;;;;20.48;5.97;;;;;;;14.53;58.88;94770.61;1623426;86;21288;-53
2022/05/11 06:59:20;;;;;;;19.35;6.58;;;;;;;14.66;58.63;94761.42;1633494;87;21061;-55
2022/05/11 07:01:30;;;;;;;15.18;8.25;;;;;;;15.11;58.25;94759.69;1613986;87;21012;-56
2022/05/11 07:03:57;;;;;;;10.28;6.10;;;;;;;15.24;57.30;94756.03;1606654;86;21461;-54
2022/05/11 07:06:24;;;;;;;18.30;6.00;;;;;;;15.36;58.22;94748.06;1627472;87;22426;-56
2022/05/11 07:08:51;;;;;;;9.45;5.28;;;;;;;15.51;59.03;94743.93;1632656;85;21673;-57
2022/05/11 07:14:03;;;;;;;11.63;5.67;;;;;;;15.85;58.71;94739.05;1674425;85;22310;-54
2022/05/11 07:16:30;;;;;;;11.10;5.70;;;;;;;16.00;57.88;94726.69;1676061;84;21088;-56
2022/05/11 07:18:56;;;;;;;11.15;5.85;;;;;;;16.15;57.88;94727.41;1651309;85;21658;-55
2022/05/11 07:21:23;;;;;;;15.80;7.00;;;;;;;16.31;56.32;94722.70;1627815;85;21060;-58
2022/05/11 07:23:50;;;;;;;10.03;6.03;;;;;;;16.51;55.89;94721.38;1670661;84;21065;-54
2022/05/11 07:26:17;;;;;;;10.93;5.58;;;;;;;16.70;56.17;94717.07;1673697;84;21043;-55
2022/05/11 07:28:43;;;;;;;7.78;4.95;;;;;;;16.91;55.90;94708.84;1673081;84;22374;-56
2022/05/11 07:31:12;;;;;;;9.30;4.55;;;;;;;17.10;55.25;94702.47;1673683;84;21050;-57
2022/05/11 07:33:39;;;;;;;8.98;6.37;;;;;;;17.25;55.04;94695.44;1651244;85;21077;-56
2022/05/11 07:36:06;;;;;;;10.13;5.15;;;;;;;17.41;54.27;94697.61;1676467;84;21088;-55
2022/05/11 07:38:37;;;;;;;6.40;4.50;;;;;;;17.57;53.59;94687.26;1674685;85;21009;-56
2022/05/11 07:41:01;;;;;;;7.92;4.95;;;;;;;17.68;53.19;94687.36;1672479;84;21858;-53
2022/05/11 07:43:28;;;;;;;8.00;4.37;;;;;;;17.77;52.69;94696.29;1675504;84;21512;-56
2022/05/11 07:45:55;;;;;;;8.78;4.22;;;;;;;17.85;51.30;94693.17;1675608;84;21383;-60
2022/05/11 07:48:22;;;;;;;7.12;4.47;;;;;;;17.93;51.45;94690.70;1670600;84;20988;-56
2022/05/11 07:50:49;;;;;;;12.98;4.12;;;;;;;18.02;50.75;94685.70;1647943;84;21917;-54
2022/05/11 07:53:17;;;;;;;15.88;3.95;;;;;;;18.16;47.08;94688.22;1644267;85;21172;-55
2022/05/11 07:55:45;;;;;;;10.82;3.37;;;;;;;18.32;42.55;94681.37;1647608;85;21111;-55
2022/05/11 08:00:59;;;;;;;5.90;3.12;;;;;;;18.77;40.21;94691.44;1674679;84;21006;-54
2022/05/11 08:03:26;;;;;;;7.05;6.35;;;;;;;19.00;38.21;94677.08;1666603;84;21070;-55
2022/05/11 08:05:52;;;;;;;8.50;6.22;;;;;;;19.17;38.64;94682.09;1670106;84;21275;-58
2022/05/11 08:08:19;;;;;;;10.35;5.47;;;;;;;19.37;36.94;94677.69;1684990;83;21540;-57
2022/05/11 08:10:47;;;;;;;15.23;8.25;;;;;;;19.56;37.54;94682.91;1683440;83;21936;-56
2022/05/11 08:13:14;;;;;;;14.05;9.65;;;;;;;19.71;37.02;94683.42;1675462;83;21153;-53
2022/05/11 08:15:47;;;;;;;13.70;4.70;;;;;;;19.84;37.29;94678.72;1680563;83;47153;-52
2022/05/11 08:18:13;;;;;;;10.10;3.25;;;;;;;20.04;38.83;94679.25;1676177;85;21239;-53
2022/05/11 08:20:43;;;;;;;10.13;3.65;;;;;;;20.34;39.27;94676.03;1683533;83;21109;-55
2022/05/11 08:23:12;;;;;;;5.40;3.45;;;;;;;20.61;37.50;94670.98;1677429;85;21080;-54
2022/05/11 08:25:41;;;;;;;4.87;3.45;;;;;;;20.84;36.58;94682.22;1681513;83;21922;-54
2022/05/11 08:28:11;;;;;;;8.03;3.90;;;;;;;21.01;36.54;94678.72;1680365;83;21081;-54
2022/05/11 08:33:23;;;;;;;8.35;2.67;;;;;;;21.37;35.54;94669.88;1656487;85;21112;-55
2022/05/11 08:35:59;;;;;;;9.93;2.80;;;;;;;21.62;34.92;94660.30;1674724;83;21161;-57
2022/05/11 08:38:30;;;;;;;16.00;3.60;;;;;;;21.83;34.21;94670.45;1675149;83;21080;-54
2022/05/11 08:41:34;;;;;;;8.10;2.92;;;;;;;22.01;33.68;94671.19;1650870;85;21376;-54
2022/05/11 08:44:18;;;;;;;5.10;2.83;;;;;;;22.05;33.46;94667.58;1679739;85;21876;-56
2022/05/11 08:47:10;;;;;;;7.05;2.87;;;;;;;22.01;33.21;94673.34;1689007;83;21124;-55
2022/05/11 08:50:09;;;;;;;8.80;3.87;;;;;;;21.81;33.31;94669.56;1682872;83;21068;-56
2022/05/11 08:52:59;;;;;;;6.33;2.70;;;;;;;21.66;33.80;94675.42;1690739;83;22185;-53
2022/05/11 08:55:31;;;;;;;4.42;2.50;;;;;;;21.66;31.37;94666.37;1684989;85;21080;-55
2022/05/11 08:58:04;;;;;;;3.42;2.52;;;;;;;21.71;32.28;94660.61;1686064;83;21101;-55
2022/05/11 09:00:29;;;;;;;3.83;2.95;;;;;;;21.68;32.73;94654.66;1686967;83;21632;-55
2022/05/11 09:03:03;;;;;;;8.93;3.10;;;;;;;21.75;33.62;94659.05;1680244;83;21021;-52
2022/05/11 09:05:32;;;;;;;5.42;2.42;;;;;;;21.84;32.20;94660.11;1683427;83;21125;-54
2022/05/11 09:07:59;;;;;;;6.12;3.35;;;;;;;21.79;32.64;94669.33;1686543;83;21144;-55
2022/05/11 09:10:30;;;;;;;6.08;3.02;;;;;;;21.77;32.54;94668.32;1688036;83;21564;-56
2022/05/11 09:13:11;;;;;;;7.45;3.35;;;;;;;21.81;31.76;94658.36;1682204;83;21038;-55
2022/05/11 09:15:58;;;;;;;11.50;3.22;;;;;;;21.85;31.36;94665.09;1685670;83;21033;-58
2022/05/11 09:18:39;;;;;;;7.45;2.42;;;;;;;21.90;30.67;94662.88;1680743;83;21090;-53
2022/05/11 09:21:24;;;;;;;3.55;2.83;;;;;;;21.92;30.95;94656.10;1682276;83;21074;-54
2022/05/11 09:24:08;;;;;;;21.82;16.52;;;;;;;22.02;33.26;94654.50;1681390;83;21202;-57
2022/05/11 09:26:44;;;;;;;11.50;9.43;;;;;;;22.18;31.74;94660.70;1681591;83;21144;-54
2022/05/11 09:29:23;;;;;;;11.50;9.28;;;;;;;22.32;33.11;94663.73;1679021;83;21041;-52
2022/05/11 09:31:52;;;;;;;8.38;4.15;;;;;;;22.41;32.23;94653.61;1670763;85;21354;-57
2022/05/11 09:34:33;;;;;;;8.10;3.12;;;;;;;22.48;32.51;94650.87;1669383;83;21048;-58
2022/05/11 09:37:02;;;;;;;6.55;2.95;;;;;;;22.51;30.56;94642.14;1688987;83;21606;-57
2022/05/11 09:39:31;;;;;;;27.20;5.75;;;;;;;22.64;31.13;94642.25;1682046;83;21514;-55
2022/05/11 09:42:14;;;;;;;14.03;3.90;;;;;;;22.71;29.99;94644.48;1682811;83;21049;-54
2022/05/11 09:44:44;;;;;;;10.43;3.37;;;;;;;22.73;31.42;94637.70;1678455;83;21486;-53
2022/05/11 09:47:25;;;;;;;3.20;2.90;;;;;;;22.78;31.30;94642.47;1674573;83;21048;-58
2022/05/11 09:49:52;;;;;;;7.97;3.67;;;;;;;22.88;32.65;94636.59;1678103;83;21482;-59
2022/05/11 09:52:34;;;;;;;5.35;2.80;;;;;;;23.05;33.29;94642.74;1680082;85;21077;-59
2022/05/11 09:55:02;;;;;;;7.75;3.77;;;;;;;23.23;31.08;94634.99;1679952;83;21170;-56
2022/05/11 09:57:28;;;;;;;11.40;3.37;;;;;;;23.31;29.53;94644.34;1679858;83;21082;-58
2022/05/11 10:00:20;;;;;;;7.75;2.92;;;;;;;23.34;28.87;94644.67;1676419;83;21573;-57
2022/05/11 10:02:50;;;;;;;7.08;3.30;;;;;;;23.37;29.94;94637.25;1672847;83;21245;-56
2022/05/11 10:05:27;;;;;;;4.78;3.17;;;;;;;23.47;29.50;94630.70;1660656;84;21045;-55
2022/05/11 10:08:15;;;;;;;5.80;3.05;;;;;;;23.63;29.94;94631.09;1652145;85;21070;-55
2022/05/11 10:11:02;;;;;;;4.80;3.20;;;;;;;23.85;29.14;94629.98;1674751;84;21128;-55
2022/05/11 10:14:00;;;;;;;8.35;4.20;;;;;;;23.94;28.55;94637.36;1678993;84;21006;-54
2022/05/11 10:22:20;;;;;;;16.48;4.42;;;;;;;24.76;26.93;94611.94;1677298;84;21074;-54
2022/05/11 10:25:04;;;;;;;5.62;2.58;;;;;;;24.89;28.67;94627.41;1677471;84;21085;-53
2022/05/11 10:28:00;;;;;;;6.03;2.98;;;;;;;25.07;30.67;94618.70;1677953;84;21080;-56
2022/05/11 10:30:35;;;;;;;8.30;3.58;;;;;;;25.35;28.81;94618.25;1685645;84;22053;-56
2022/05/11 10:33:35;;;;;;;6.58;2.62;;;;;;;25.45;28.59;94624.18;1677488;85;21155;-54
2022/05/11 10:36:22;;;;;;;7.78;3.30;;;;;;;25.37;28.69;94624.73;1677460;84;21072;-54
2022/05/11 10:39:14;;;;;;;5.12;2.75;;;;;;;25.49;28.93;94621.78;1667582;85;21042;-56
2022/05/11 10:42:15;;;;;;;9.15;2.90;;;;;;;25.50;29.00;94613.43;1631747;85;22390;-54
2022/05/11 10:44:53;;;;;;;4.50;2.87;;;;;;;25.75;29.41;94614.61;1665510;84;21283;-56
2022/05/11 10:47:45;;;;;;;7.62;2.72;;;;;;;25.96;28.39;94616.91;1677813;84;21057;-57
2022/05/11 10:50:23;;;;;;;11.63;3.27;;;;;;;26.09;28.42;94615.42;1686337;84;21561;-55
2022/05/11 10:53:18;;;;;;;9.43;3.12;;;;;;;26.15;28.77;94608.98;1691925;84;22070;-53
2022/05/11 10:56:17;;;;;;;9.73;4.22;;;;;;;26.29;28.21;94609.00;1676249;84;21068;-54
2022/05/11 10:59:36;;;;;;;7.70;3.27;;;;;;;26.47;27.66;94613.65;1650335;84;21766;-55
2022/05/11 11:02:32;;;;;;;29.05;6.65;;;;;;;26.60;27.52;94609.35;1647650;84;21060;-55
2022/05/11 11:05:13;;;;;;;9.20;3.72;;;;;;;26.83;27.26;94610.91;1622908;87;21118;-54
2022/05/11 11:07:46;;;;;;;23.07;3.50;;;;;;;26.87;26.74;94607.06;1668928;83;21505;-55
2022/05/11 11:10:16;;;;;;;;;;;;;;;27.17;27.32;94603.73;1671414;83;21026;-55
2022/05/11 11:13:17;;;;;;;4.57;2.63;;;;;;;27.54;26.23;94608.77;1675273;83;20457;-57
2022/05/11 11:15:44;;;;;;;27.55;3.12;;;;;;;27.81;26.57;94607.81;1636496;85;20960;-57
2022/05/11 11:18:13;;;;;;;18.98;3.20;;;;;;;28.21;25.78;94609.55;1640732;86;21068;-56
2022/05/11 11:20:45;;;;;;;7.90;2.22;;;;;;;28.45;25.50;94603.34;1608745;86;21413;-57
2022/05/11 11:23:14;;;;;;;;;;;;;;;28.58;24.67;94607.39;1632626;86;20989;-54
2022/05/11 11:25:51;;;;;;;24.05;7.40;;;;;;;28.71;24.90;94602.91;1628143;86;21218;-55
2022/05/11 11:28:23;;;;;;;12.20;3.15;;;;;;;28.80;24.72;94605.17;1645376;85;21057;-55
2022/05/11 11:31:05;;;;;;;19.30;6.55;;;;;;;29.00;24.41;94602.78;1610716;86;21074;-58
2022/05/11 11:33:41;;;;;;;7.72;2.87;;;;;;;29.20;24.05;94607.44;1627493;86;21012;-55
2022/05/11 11:36:36;;;;;;;31.37;3.40;;;;;;;29.38;23.53;94601.97;1641886;85;21507;-56
2022/05/11 11:39:05;;;;;;;14.87;2.77;;;;;;;29.53;23.33;94596.27;1632289;86;21256;-54
2022/05/11 11:41:44;;;;;;;14.35;2.90;;;;;;;29.51;23.66;94596.83;1634692;87;21169;-57
2022/05/11 11:44:31;;;;;;;10.23;2.42;;;;;;;29.45;23.31;94599.76;1633722;86;21069;-53
2022/05/11 11:46:59;;;;;;;7.00;3.33;;;;;;;29.22;23.34;94599.11;1635093;86;21112;-55
2022/05/11 11:49:34;;;;;;;6.53;2.67;;;;;;;29.23;23.53;94604.22;1631694;87;21050;-55
2022/05/11 11:52:04;;;;;;;7.58;2.27;;;;;;;29.39;23.11;94602.06;1634997;86;21271;-56
2022/05/11 11:54:43;;;;;;;11.03;2.58;;;;;;;29.61;23.46;94593.48;1634472;86;21060;-54
2022/05/11 11:57:26;;;;;;;17.87;3.27;;;;;;;29.73;23.56;94596.63;1636128;87;21421;-56
2022/05/11 11:59:59;;;;;;;8.63;2.30;;;;;;;29.68;23.78;94583.42;1633647;86;21068;-52
2022/05/11 12:02:38;;;;;;;10.68;2.95;;;;;;;29.86;23.53;94593.52;1610392;87;21084;-57
2022/05/11 12:05:33;;;;;;;5.83;2.47;;;;;;;30.03;23.13;94580.94;1633208;86;21232;-54
2022/05/11 12:16:53;;;;;;;25.82;4.65;;;;;;;30.44;22.26;94585.12;1672357;85;21187;-57
2022/05/11 12:19:22;;;;;;;9.10;2.75;;;;;;;30.36;22.42;94583.77;1676961;84;23119;-56
2022/05/11 12:22:04;;;;;;;8.45;2.52;;;;;;;30.39;22.65;94581.21;1670911;84;21104;-56
2022/05/11 12:24:41;;;;;;;11.35;2.45;;;;;;;30.40;21.81;94579.88;1676864;84;21101;-54
2022/05/11 12:27:13;;;;;;;5.65;2.37;;;;;;;30.39;21.95;94579.80;1666720;85;21076;-56
2022/05/11 12:29:54;;;;;;;8.68;2.72;;;;;;;30.64;22.11;94572.69;1677281;84;21068;-54
2022/05/11 12:32:29;;;;;;;9.53;2.67;;;;;;;31.21;22.04;94573.21;1669981;84;21814;-55
2022/05/11 12:34:58;;;;;;;6.22;3.10;;;;;;;31.61;21.21;94567.27;1672804;83;21096;-57